Time;durP1;ratioP1;P1;durP2;ratioP2;P2;SDS_P1;SDS_P2;PMS_P1;PMS_P2;Temp;Humidity;BMP_temperature;BMP_pressure;BME280_temperature;BME280_humidity;BME280_pressure;Samples;Min_cycle;Max_cycle;Signal;HPM_P1;HPM_P2
2023/10/25 00:01:37;;;;;;;6.10;3.10;;;16.00;71.30;;;;;;6215566;28;20029;-67
2023/10/25 00:04:38;;;;;;;4.82;3.13;;;15.90;71.30;;;;;;6217973;28;20030;-65
2023/10/25 00:07:39;;;;;;;4.45;2.83;;;15.90;71.30;;;;;;6220739;28;20074;-65
2023/10/25 00:10:39;;;;;;;5.90;3.38;;;15.80;71.30;;;;;;6219710;28;20092;-65
2023/10/25 00:13:41;;;;;;;6.72;3.35;;;15.80;71.40;;;;;;6220390;28;20049;-65
2023/10/25 00:16:41;;;;;;;4.60;2.78;;;15.80;71.60;;;;;;6220020;28;20040;-65
2023/10/25 00:19:42;;;;;;;5.60;3.00;;;15.80;71.60;;;;;;6220822;28;20037;-66
2023/10/25 00:22:43;;;;;;;5.50;2.75;;;15.70;71.40;;;;;;6220120;28;20034;-66
2023/10/25 00:25:44;;;;;;;5.43;2.90;;;15.50;71.40;;;;;;6218178;28;20150;-65
2023/10/25 00:28:45;;;;;;;7.50;2.90;;;15.60;71.70;;;;;;6217528;28;20913;-65
2023/10/25 00:31:46;;;;;;;4.55;2.78;;;15.60;72.70;;;;;;6219087;28;20163;-65
2023/10/25 00:34:47;;;;;;;6.55;3.00;;;15.50;71.90;;;;;;6217797;28;20041;-66
2023/10/25 00:37:47;;;;;;;6.75;3.33;;;15.50;72.00;;;;;;6217727;28;20038;-65
2023/10/25 00:40:48;;;;;;;7.20;3.33;;;15.50;72.10;;;;;;6218468;28;20355;-65
2023/10/25 00:43:49;;;;;;;4.43;3.00;;;15.50;72.10;;;;;;6217529;28;20030;-66
2023/10/25 00:46:50;;;;;;;9.32;3.53;;;15.50;72.10;;;;;;6217758;28;20056;-65
2023/10/25 00:49:52;;;;;;;5.75;2.90;;;15.50;72.10;;;;;;6217291;28;20030;-65
2023/10/25 00:52:52;;;;;;;4.72;3.05;;;15.50;72.00;;;;;;6217546;28;20119;-65
2023/10/25 00:55:56;;;;;;;6.57;2.67;;;15.50;72.10;;;;;;6217279;28;20038;-66
2023/10/25 00:58:59;;;;;;;6.82;2.95;;;15.50;72.10;;;;;;6216963;28;20040;-65
2023/10/25 01:02:00;;;;;;;12.93;2.80;;;15.50;72.10;;;;;;6218628;28;20068;-66
2023/10/25 01:05:01;;;;;;;10.20;2.50;;;16.00;72.30;;;;;;6217103;28;20034;-66
2023/10/25 01:08:02;;;;;;;2.90;2.15;;;15.50;71.80;;;;;;6216950;28;20030;-64
2023/10/25 01:11:04;;;;;;;7.53;2.25;;;15.50;71.70;;;;;;6216882;28;20068;-65
2023/10/25 01:14:05;;;;;;;5.63;3.00;;;15.40;71.70;;;;;;6218442;28;20042;-64
2023/10/25 01:17:06;;;;;;;3.85;2.00;;;15.40;71.70;;;;;;6217874;28;20030;-65
2023/10/25 01:20:07;;;;;;;2.70;2.30;;;15.40;71.80;;;;;;6217377;28;20049;-65
2023/10/25 01:23:08;;;;;;;4.18;2.90;;;15.40;71.90;;;;;;6218107;28;20038;-66
2023/10/25 01:26:09;;;;;;;3.20;2.35;;;15.40;71.90;;;;;;6217652;28;20084;-66
2023/10/25 01:29:10;;;;;;;4.82;2.78;;;15.30;72.70;;;;;;6215845;28;20556;-67
2023/10/25 01:32:11;;;;;;;4.30;2.65;;;15.20;72.00;;;;;;6216182;28;20062;-65
2023/10/25 01:35:12;;;;;;;5.63;2.83;;;15.20;72.10;;;;;;6211972;28;20026;-65
2023/10/25 01:38:13;;;;;;;4.95;2.70;;;15.10;72.30;;;;;;6214871;28;20088;-67
2023/10/25 01:41:16;;;;;;;3.97;2.13;;;15.10;72.50;;;;;;6217567;28;20069;-66
2023/10/25 01:44:16;;;;;;;6.53;2.60;;;15.10;72.60;;;;;;6217570;28;20076;-65
2023/10/25 01:47:17;;;;;;;5.90;2.92;;;15.00;72.70;;;;;;6216292;28;20109;-67
2023/10/25 01:50:19;;;;;;;7.38;2.50;;;15.00;72.80;;;;;;6216088;28;20065;-65
2023/10/25 01:53:21;;;;;;;4.60;2.40;;;15.00;72.80;;;;;;6217386;28;20129;-65
2023/10/25 01:56:22;;;;;;;8.13;2.55;;;15.00;72.90;;;;;;6216270;28;20614;-66
2023/10/25 01:59:23;;;;;;;11.50;2.65;;;15.00;72.90;;;;;;6215434;28;20033;-66
2023/10/25 02:02:24;;;;;;;10.13;3.78;;;15.00;72.80;;;;;;6191238;28;20141;-66
2023/10/25 02:05:25;;;;;;;5.60;2.58;;;15.00;72.80;;;;;;6190842;28;20329;-66
2023/10/25 02:08:26;;;;;;;7.50;3.15;;;14.90;72.80;;;;;;6191209;28;20030;-66
2023/10/25 02:11:27;;;;;;;3.58;2.28;;;15.00;72.90;;;;;;6199815;28;20410;-68
2023/10/25 02:14:28;;;;;;;6.47;3.13;;;14.90;72.80;;;;;;6198720;28;20034;-66
2023/10/25 02:17:28;;;;;;;4.95;2.92;;;14.90;72.80;;;;;;6214949;28;20127;-64
2023/10/25 02:20:30;;;;;;;7.32;2.83;;;14.90;72.90;;;;;;6214666;28;20030;-66
2023/10/25 02:23:31;;;;;;;5.65;2.83;;;14.90;73.00;;;;;;6215355;28;20032;-66
2023/10/25 02:26:33;;;;;;;7.60;3.22;;;15.00;72.80;;;;;;6214619;28;20022;-65
2023/10/25 02:29:34;;;;;;;4.68;3.35;;;15.00;72.80;;;;;;6216575;28;20033;-67
2023/10/25 02:32:35;;;;;;;6.95;3.92;;;14.90;72.80;;;;;;6216122;28;20212;-66
2023/10/25 02:35:36;;;;;;;14.95;5.03;;;14.90;72.70;;;;;;6198332;28;20046;-66
2023/10/25 02:38:37;;;;;;;9.77;5.07;;;14.90;72.60;;;;;;6214184;28;20026;-65
2023/10/25 02:41:38;;;;;;;8.05;4.28;;;14.90;72.70;;;;;;6215704;28;20079;-67
2023/10/25 02:44:39;;;;;;;11.82;4.13;;;14.80;72.80;;;;;;6214302;28;20144;-65
2023/10/25 02:47:40;;;;;;;10.52;4.40;;;14.80;72.90;;;;;;6214410;28;20084;-67
2023/10/25 02:50:41;;;;;;;6.88;4.05;;;14.70;73.00;;;;;;6214305;28;20769;-65
2023/10/25 02:53:42;;;;;;;6.70;3.65;;;14.70;73.20;;;;;;6216214;28;20069;-66
2023/10/25 02:56:43;;;;;;;12.98;3.92;;;14.60;73.30;;;;;;6215895;28;20434;-65
2023/10/25 02:59:44;;;;;;;11.13;4.18;;;14.60;73.40;;;;;;6215210;28;20506;-65
2023/10/25 03:02:45;;;;;;;8.52;4.05;;;14.60;73.50;;;;;;6216086;28;20077;-65
2023/10/25 03:05:47;;;;;;;8.43;4.47;;;14.60;73.50;;;;;;6215864;28;20022;-66
2023/10/25 03:08:48;;;;;;;9.70;3.65;;;14.60;73.50;;;;;;6215804;28;20096;-66
2023/10/25 03:11:49;;;;;;;7.60;3.95;;;14.60;73.40;;;;;;6214215;28;20072;-65
2023/10/25 03:14:50;;;;;;;6.35;3.22;;;14.50;73.40;;;;;;6215840;28;20074;-65
2023/10/25 03:17:51;;;;;;;7.90;3.70;;;14.50;73.50;;;;;;6213976;28;20038;-66
2023/10/25 03:20:52;;;;;;;6.22;3.28;;;14.50;73.60;;;;;;6213497;28;20563;-68
2023/10/25 03:23:53;;;;;;;9.38;3.40;;;14.50;73.50;;;;;;6214045;28;20034;-66
2023/10/25 03:26:54;;;;;;;4.45;3.03;;;14.60;73.60;;;;;;6215222;28;20348;-65
2023/10/25 03:29:55;;;;;;;5.82;3.25;;;14.60;73.60;;;;;;6193058;28;20034;-67
2023/10/25 03:32:56;;;;;;;5.63;3.10;;;14.60;73.50;;;;;;6191171;28;20213;-65
2023/10/25 03:35:57;;;;;;;4.80;3.47;;;14.60;73.40;;;;;;6190938;28;20030;-66
2023/10/25 03:39:02;;;;;;;21.13;3.40;;;14.60;73.30;;;;;;6190599;28;20467;-66
2023/10/25 03:42:03;;;;;;;9.52;3.00;;;14.60;73.30;;;;;;6190898;28;20030;-67
2023/10/25 03:45:06;;;;;;;13.43;3.88;;;14.70;73.30;;;;;;6205278;28;20066;-65
2023/10/25 03:48:07;;;;;;;5.03;2.63;;;14.70;73.20;;;;;;6205812;28;20101;-65
2023/10/25 03:51:10;;;;;;;7.65;3.92;;;14.70;73.20;;;;;;6205743;28;20042;-66
2023/10/25 03:54:11;;;;;;;7.05;3.58;;;14.70;73.20;;;;;;6206886;28;20479;-66
2023/10/25 03:57:11;;;;;;;9.57;4.13;;;14.70;73.20;;;;;;6190995;28;20029;-66
2023/10/25 04:00:13;;;;;;;8.10;4.40;;;14.80;73.20;;;;;;6190430;28;20482;-65
2023/10/25 04:03:14;;;;;;;8.20;4.22;;;14.80;73.10;;;;;;6188916;28;20033;-66
2023/10/25 04:06:15;;;;;;;8.95;4.47;;;14.80;72.80;;;;;;6190034;28;20038;-66
2023/10/25 04:09:16;;;;;;;9.13;4.43;;;14.80;72.80;;;;;;6190139;28;20030;-66
2023/10/25 04:12:17;;;;;;;11.52;5.28;;;14.70;72.80;;;;;;6206063;28;20076;-65
2023/10/25 04:15:18;;;;;;;8.82;4.32;;;14.70;73.00;;;;;;6214616;28;20045;-65
2023/10/25 04:18:19;;;;;;;7.32;3.45;;;14.70;73.30;;;;;;6214346;28;20037;-65
2023/10/25 04:21:20;;;;;;;8.43;4.32;;;14.60;73.40;;;;;;6214352;28;20175;-66
2023/10/25 04:24:21;;;;;;;8.15;3.10;;;14.60;73.40;;;;;;6214142;28;20712;-65
2023/10/25 04:27:22;;;;;;;4.22;2.70;;;14.60;73.40;;;;;;6214330;28;20652;-67
2023/10/25 04:30:23;;;;;;;7.18;2.92;;;14.60;73.40;;;;;;6212731;28;20629;-65
2023/10/25 04:33:24;;;;;;;9.98;3.63;;;14.60;73.50;;;;;;6214504;28;20117;-65
2023/10/25 04:36:25;;;;;;;9.18;2.75;;;14.60;73.30;;;;;;6212982;28;20045;-65
2023/10/25 04:39:26;;;;;;;4.97;2.63;;;14.60;74.20;;;;;;6214380;28;20072;-65
2023/10/25 04:42:26;;;;;;;6.60;3.05;;;14.60;73.30;;;;;;6214449;28;20049;-65
2023/10/25 04:45:29;;;;;;;6.35;3.20;;;14.60;73.30;;;;;;6214559;28;20462;-65
2023/10/25 04:48:30;;;;;;;6.07;3.13;;;14.60;73.30;;;;;;6212809;28;20117;-66
2023/10/25 04:51:30;;;;;;;5.68;3.70;;;14.60;73.10;;;;;;6215689;28;20398;-66
2023/10/25 04:54:31;;;;;;;8.18;2.88;;;14.60;73.00;;;;;;6218594;28;20029;-66
2023/10/25 04:57:34;;;;;;;11.70;2.70;;;14.60;73.00;;;;;;6218737;28;20136;-66
2023/10/25 05:00:34;;;;;;;10.30;3.25;;;14.60;73.00;;;;;;6216466;28;20128;-65
2023/10/25 05:03:35;;;;;;;3.97;2.65;;;14.70;73.00;;;;;;6217226;28;20061;-66
2023/10/25 05:06:37;;;;;;;6.18;2.75;;;14.70;73.00;;;;;;6218526;28;20445;-66
2023/10/25 05:09:38;;;;;;;4.22;2.33;;;14.70;72.90;;;;;;6218214;28;20080;-66
2023/10/25 05:12:48;;;;;;;3.65;2.30;;;15.30;73.10;;;;;;6216516;28;20033;-64
2023/10/25 05:15:49;;;;;;;6.68;2.75;;;14.70;72.60;;;;;;6217126;28;20080;-67
2023/10/25 05:18:50;;;;;;;9.98;2.97;;;14.70;72.50;;;;;;6216335;28;20065;-68
2023/10/25 05:21:51;;;;;;;5.78;2.95;;;14.70;72.30;;;;;;6215852;28;20435;-66
2023/10/25 05:24:53;;;;;;;4.32;2.50;;;14.70;72.30;;;;;;6217964;28;20025;-66
2023/10/25 05:27:54;;;;;;;7.32;3.33;;;14.70;72.30;;;;;;6217403;28;20528;-65
2023/10/25 05:30:57;;;;;;;6.15;3.65;;;14.70;72.30;;;;;;6217028;28;20062;-67
2023/10/25 05:33:58;;;;;;;5.93;4.05;;;14.60;72.20;;;;;;6217339;28;20073;-65
2023/10/25 05:36:59;;;;;;;7.75;3.50;;;14.60;72.20;;;;;;6217807;28;20067;-66
2023/10/25 05:40:01;;;;;;;5.68;3.60;;;14.20;72.00;;;;;;6217316;28;20041;-65
2023/10/25 05:43:05;;;;;;;7.65;3.40;;;14.50;72.40;;;;;;6217707;28;20148;-65
2023/10/25 05:46:06;;;;;;;4.75;2.97;;;14.50;72.60;;;;;;6217917;28;20391;-66
2023/10/25 05:49:08;;;;;;;13.85;3.88;;;14.50;72.50;;;;;;6218164;28;20034;-65
2023/10/25 05:52:10;;;;;;;13.68;4.35;;;14.50;72.50;;;;;;6217345;28;20065;-65
2023/10/25 05:55:15;;;;;;;7.60;4.25;;;14.50;72.70;;;;;;6217238;28;20439;-67
2023/10/25 05:58:16;;;;;;;10.70;3.83;;;14.50;72.60;;;;;;6216692;28;20110;-66
2023/10/25 06:01:22;;;;;;;7.03;3.38;;;14.60;72.60;;;;;;6200285;28;20034;-66
2023/10/25 06:04:24;;;;;;;9.00;3.83;;;14.60;72.50;;;;;;6192070;28;20034;-65
2023/10/25 06:07:26;;;;;;;7.95;3.45;;;14.60;72.40;;;;;;6191193;28;20546;-65
2023/10/25 06:10:27;;;;;;;5.40;2.92;;;14.60;72.50;;;;;;6191602;28;20670;-65
2023/10/25 06:13:28;;;;;;;9.73;3.05;;;14.60;72.50;;;;;;6216568;28;20136;-65
2023/10/25 06:16:29;;;;;;;10.48;3.13;;;14.70;72.40;;;;;;6216550;28;20026;-65
2023/10/25 06:19:30;;;;;;;5.50;3.28;;;14.70;72.30;;;;;;6215900;28;20121;-65
2023/10/25 06:22:31;;;;;;;4.85;2.88;;;14.70;72.30;;;;;;6215963;28;20309;-65
2023/10/25 06:25:32;;;;;;;5.55;2.90;;;14.70;72.30;;;;;;6216394;28;20120;-66
2023/10/25 06:28:34;;;;;;;5.85;3.20;;;14.70;72.10;;;;;;6216184;28;20132;-67
2023/10/25 06:31:35;;;;;;;5.60;2.65;;;14.70;72.00;;;;;;6213957;28;20070;-66
2023/10/25 06:34:36;;;;;;;4.60;3.08;;;14.80;72.00;;;;;;6215998;28;20770;-66
2023/10/25 06:37:37;;;;;;;5.32;3.45;;;14.70;71.90;;;;;;6215342;28;20029;-69
2023/10/25 06:40:38;;;;;;;5.60;3.30;;;14.80;72.00;;;;;;6215748;28;20037;-66
2023/10/25 06:43:39;;;;;;;8.70;3.70;;;14.80;71.90;;;;;;6215943;28;20113;-66
2023/10/25 06:46:41;;;;;;;12.63;3.45;;;14.80;71.90;;;;;;6215688;28;20065;-66
2023/10/25 06:49:43;;;;;;;7.30;3.67;;;14.80;72.10;;;;;;6213785;28;20026;-65
2023/10/25 06:52:44;;;;;;;6.20;3.47;;;14.90;72.10;;;;;;6213540;28;20473;-65
2023/10/25 06:55:45;;;;;;;5.22;2.92;;;14.90;71.90;;;;;;6215662;28;20025;-68
2023/10/25 06:58:46;;;;;;;6.03;2.92;;;15.00;71.70;;;;;;6214853;28;20022;-67
2023/10/25 07:01:57;;;;;;;8.20;3.13;;;15.00;71.70;;;;;;6196671;28;20037;-67
2023/10/25 07:05:12;;;;;;;10.00;3.00;;;15.10;71.60;;;;;;6215226;28;20060;-64
2023/10/25 07:08:13;;;;;;;5.85;3.30;;;15.20;71.30;;;;;;6215062;28;20025;-66
2023/10/25 07:11:14;;;;;;;7.00;2.83;;;15.20;71.10;;;;;;6215129;28;20119;-64
2023/10/25 07:14:15;;;;;;;8.77;2.70;;;15.20;71.00;;;;;;6213194;28;20097;-65
2023/10/25 07:17:16;;;;;;;5.00;2.92;;;15.30;70.70;;;;;;6214163;28;20037;-66
2023/10/25 07:20:17;;;;;;;4.65;2.63;;;15.30;70.50;;;;;;6215697;28;20426;-67
2023/10/25 07:23:18;;;;;;;5.63;2.88;;;15.40;70.40;;;;;;6216806;28;20415;-67
2023/10/25 07:26:19;;;;;;;5.85;3.03;;;15.40;70.20;;;;;;6215684;28;20505;-69
2023/10/25 07:29:19;;;;;;;6.53;2.70;;;15.50;70.10;;;;;;6216313;28;20037;-67
2023/10/25 07:32:20;;;;;;;22.08;2.10;;;15.60;70.00;;;;;;6198965;28;20550;-67
2023/10/25 07:35:21;;;;;;;12.02;2.35;;;15.60;69.60;;;;;;6213902;28;20437;-67
2023/10/25 07:38:22;;;;;;;4.55;2.17;;;15.60;70.40;;;;;;6214064;28;20037;-68
2023/10/25 07:41:23;;;;;;;6.50;3.08;;;15.60;69.40;;;;;;6215123;28;20062;-66
2023/10/25 07:44:24;;;;;;;4.10;2.38;;;15.60;69.00;;;;;;6214989;28;20044;-68
2023/10/25 07:47:24;;;;;;;5.53;2.60;;;15.70;68.80;;;;;;6213627;28;20037;-66
2023/10/25 07:50:25;;;;;;;4.47;2.47;;;15.70;68.60;;;;;;6214986;28;20504;-66
2023/10/25 07:53:27;;;;;;;6.65;2.95;;;15.70;68.70;;;;;;6215274;28;20038;-66
2023/10/25 07:56:27;;;;;;;6.35;2.75;;;15.70;68.70;;;;;;6213792;28;20033;-66
2023/10/25 07:59:29;;;;;;;7.93;3.75;;;15.80;68.50;;;;;;6213855;28;20526;-67
2023/10/25 08:02:29;;;;;;;6.05;3.95;;;15.80;68.50;;;;;;6213033;28;20045;-67
2023/10/25 08:05:30;;;;;;;8.63;3.10;;;15.80;68.50;;;;;;6213093;28;20114;-66
2023/10/25 08:08:32;;;;;;;6.65;3.10;;;15.90;68.20;;;;;;6214251;28;20125;-66
2023/10/25 08:11:37;;;;;;;5.50;3.22;;;15.90;68.20;;;;;;6213992;28;20038;-65
2023/10/25 08:14:38;;;;;;;9.38;3.35;;;17.20;68.20;;;;;;6212940;28;20026;-66
2023/10/25 08:17:39;;;;;;;7.95;3.40;;;15.90;68.00;;;;;;6212572;28;20058;-66
2023/10/25 08:20:40;;;;;;;8.52;3.85;;;16.00;67.80;;;;;;6214444;28;20034;-66
2023/10/25 08:23:41;;;;;;;6.03;2.90;;;16.00;68.40;;;;;;6215034;28;20041;-68
2023/10/25 08:26:42;;;;;;;11.82;3.15;;;16.00;67.60;;;;;;6218183;28;20037;-66
2023/10/25 08:29:43;;;;;;;10.93;3.78;;;16.10;67.80;;;;;;6219209;28;20201;-67
2023/10/25 08:32:46;;;;;;;13.35;3.85;;;16.10;67.80;;;;;;6218672;28;20053;-66
2023/10/25 08:35:47;;;;;;;6.90;3.42;;;16.10;67.90;;;;;;6217701;28;20034;-67
2023/10/25 08:38:48;;;;;;;8.02;2.33;;;16.10;68.00;;;;;;6218293;28;20074;-67
2023/10/25 08:41:53;;;;;;;20.27;6.15;;;16.20;68.10;;;;;;6218389;28;20184;-67
2023/10/25 08:44:54;;;;;;;18.58;4.68;;;16.30;68.20;;;;;;6218533;28;20159;-64
2023/10/25 08:47:55;;;;;;;6.35;3.45;;;16.40;67.90;;;;;;6216735;28;20534;-65
2023/10/25 08:50:58;;;;;;;10.35;4.43;;;16.40;67.30;;;;;;6218121;28;20030;-66
2023/10/25 08:54:00;;;;;;;16.67;4.65;;;16.50;67.10;;;;;;6218274;28;20056;-66
2023/10/25 08:57:03;;;;;;;5.85;2.72;;;16.80;66.80;;;;;;6218246;28;20034;-67
2023/10/25 09:00:07;;;;;;;7.25;3.60;;;17.00;66.10;;;;;;6217699;28;20032;-67
2023/10/25 09:03:08;;;;;;;4.18;2.58;;;17.20;65.90;;;;;;6216484;28;20030;-65
2023/10/25 09:06:10;;;;;;;8.40;2.95;;;17.50;65.00;;;;;;6217531;28;20033;-65
2023/10/25 09:09:11;;;;;;;13.63;4.55;;;17.70;64.70;;;;;;6217391;28;20030;-66
2023/10/25 09:12:22;;;;;;;13.93;3.65;;;17.80;64.00;;;;;;6217739;28;20044;-67
2023/10/25 09:15:29;;;;;;;4.18;2.47;;;18.00;63.40;;;;;;6217440;28;20508;-66
2023/10/25 09:18:32;;;;;;;15.13;3.70;;;18.00;62.60;;;;;;6217059;28;20504;-65
2023/10/25 09:21:33;;;;;;;16.33;6.88;;;18.10;62.50;;;;;;6217821;28;20038;-67
2023/10/25 09:24:47;;;;;;;4.65;2.20;;;18.10;62.20;;;;;;6217897;28;20029;-66
2023/10/25 09:27:50;;;;;;;7.05;3.30;;;18.10;62.00;;;;;;6217880;28;20038;-65
2023/10/25 09:30:51;;;;;;;9.10;4.07;;;18.00;62.00;;;;;;6218971;28;20045;-68
2023/10/25 09:33:53;;;;;;;3.67;2.13;;;18.10;62.30;;;;;;6217825;28;20577;-68
2023/10/25 09:36:54;;;;;;;17.17;4.70;;;18.10;61.80;;;;;;6217362;28;20347;-68
2023/10/25 09:39:55;;;;;;;9.25;3.90;;;18.20;61.60;;;;;;6216677;28;20034;-65
2023/10/25 09:42:59;;;;;;;4.55;1.65;;;18.30;61.20;;;;;;6217145;28;20116;-67
2023/10/25 09:46:05;;;;;;;3.83;2.20;;;18.30;60.70;;;;;;6215552;28;20403;-67
2023/10/25 09:49:06;;;;;;;7.88;2.95;;;18.30;60.80;;;;;;6216933;28;20548;-66
2023/10/25 09:52:24;;;;;;;7.68;3.00;;;18.30;61.20;;;;;;6215518;28;20171;-66
2023/10/25 09:55:31;;;;;;;14.77;6.05;;;18.30;61.00;;;;;;6216897;28;20657;-65
2023/10/25 09:58:34;;;;;;;8.25;2.50;;;18.30;60.70;;;;;;6215250;28;20064;-66
2023/10/25 10:01:35;;;;;;;7.78;4.15;;;18.40;61.00;;;;;;6216490;28;20302;-68
2023/10/25 10:04:42;;;;;;;4.45;2.30;;;18.40;61.20;;;;;;6216190;28;20451;-65
2023/10/25 10:08:18;;;;;;;13.27;3.70;;;18.40;61.30;;;;;;6214970;28;20393;-66
2023/10/25 10:11:24;;;;;;;7.30;2.92;;;18.80;61.60;;;;;;6180498;28;20464;-68
2023/10/25 10:14:32;;;;;;;8.73;4.05;;;18.30;61.60;;;;;;6164866;28;20452;-67
2023/10/25 10:17:36;;;;;;;6.18;2.72;;;18.50;61.50;;;;;;6148629;28;20097;-67
2023/10/25 10:20:37;;;;;;;9.88;3.58;;;18.60;61.20;;;;;;6162900;28;20050;-65
2023/10/25 10:23:40;;;;;;;10.82;2.55;;;18.80;60.70;;;;;;6163338;28;20047;-67
2023/10/25 10:26:44;;;;;;;18.00;4.30;;;18.80;60.10;;;;;;6163973;28;20026;-65
2023/10/25 10:29:49;;;;;;;9.88;3.40;;;18.90;60.00;;;;;;6163553;28;20078;-68
2023/10/25 10:32:57;;;;;;;6.38;2.95;;;18.90;59.40;;;;;;6147377;28;20193;-66
2023/10/25 10:36:04;;;;;;;9.37;2.93;;;18.90;59.00;;;;;;6163152;28;20519;-66
2023/10/25 10:39:12;;;;;;;4.43;2.43;;;18.90;59.10;;;;;;6163309;28;20093;-65
2023/10/25 10:42:17;;;;;;;;;;;18.80;59.30;;;;;;6163945;28;20322;-66
2023/10/25 10:45:19;;;;;;;9.50;2.40;;;18.80;59.60;;;;;;6147156;28;20024;-67
2023/10/25 10:48:35;;;;;;;7.95;3.05;;;18.70;59.80;;;;;;6180971;28;20042;-65
2023/10/25 10:51:36;;;;;;;6.57;3.05;;;18.70;60.30;;;;;;6190109;28;20050;-68
2023/10/25 10:54:37;;;;;;;5.13;2.67;;;18.60;61.00;;;;;;6191702;28;20046;-65
2023/10/25 10:57:38;;;;;;;9.43;3.85;;;18.60;61.40;;;;;;6192497;28;20038;-66
2023/10/25 11:00:44;;;;;;;5.82;2.78;;;18.70;61.50;;;;;;6199738;28;20117;-66
2023/10/25 11:03:47;;;;;;;8.80;4.05;;;18.80;61.70;;;;;;6215051;28;20383;-66
2023/10/25 11:06:48;;;;;;;8.68;3.70;;;18.90;61.70;;;;;;6214550;28;20030;-65
2023/10/25 11:09:49;;;;;;;9.70;2.60;;;19.00;61.70;;;;;;6214727;28;20501;-67
2023/10/25 11:12:50;;;;;;;5.47;3.00;;;19.10;61.60;;;;;;6215058;28;20038;-66
2023/10/25 11:16:08;;;;;;;9.20;4.47;;;19.20;61.40;;;;;;6215069;28;20189;-67
2023/10/25 11:19:09;;;;;;;11.65;3.65;;;19.30;61.40;;;;;;6214890;28;20459;-67
2023/10/25 11:22:10;;;;;;;7.82;2.90;;;19.30;61.20;;;;;;6214909;28;20053;-65
2023/10/25 11:25:21;;;;;;;9.98;3.88;;;19.30;61.20;;;;;;6214908;28;20026;-65
2023/10/25 11:28:23;;;;;;;10.65;3.35;;;19.40;61.10;;;;;;6213304;28;20068;-67
2023/10/25 11:31:24;;;;;;;16.48;7.53;;;19.50;60.60;;;;;;6213268;28;20484;-67
2023/10/25 11:34:25;;;;;;;14.55;4.25;;;19.50;60.90;;;;;;6214294;28;20037;-66
2023/10/25 11:37:45;;;;;;;5.72;2.80;;;19.60;60.10;;;;;;6214449;28;20133;-65
2023/10/25 11:40:47;;;;;;;106.57;87.07;;;19.70;59.20;;;;;;6214097;28;20378;-68
2023/10/25 11:43:48;;;;;;;17.55;8.13;;;19.80;58.90;;;;;;6214332;28;20022;-67
2023/10/25 11:46:51;;;;;;;10.50;4.18;;;19.80;58.70;;;;;;6214626;28;20360;-66
2023/10/25 11:49:55;;;;;;;11.68;1.77;;;19.90;58.50;;;;;;6214168;28;20034;-67
2023/10/25 11:52:58;;;;;;;5.97;2.90;;;19.80;58.20;;;;;;6212572;28;20558;-67
2023/10/25 11:55:59;;;;;;;7.05;2.55;;;19.80;58.30;;;;;;6212580;28;20030;-66
2023/10/25 11:59:00;;;;;;;49.65;29.83;;;19.90;58.80;;;;;;6214783;28;20021;-67
2023/10/25 12:02:01;;;;;;;6.88;2.45;;;20.50;58.10;;;;;;6217648;28;20207;-66
2023/10/25 12:05:03;;;;;;;7.65;3.22;;;21.10;56.90;;;;;;6219255;28;20104;-65
2023/10/25 12:08:04;;;;;;;37.83;17.17;;;21.50;55.80;;;;;;6218923;28;20157;-66
2023/10/25 12:11:05;;;;;;;4.50;2.00;;;21.90;54.80;;;;;;6218707;28;20045;-67
2023/10/25 12:14:07;;;;;;;8.02;2.38;;;22.20;54.70;;;;;;6218688;28;20087;-65
2023/10/25 12:17:08;;;;;;;22.65;5.45;;;22.30;54.10;;;;;;6219817;28;20048;-67
2023/10/25 12:20:09;;;;;;;12.90;5.00;;;22.30;53.90;;;;;;6217141;28;20042;-68
2023/10/25 12:23:10;;;;;;;8.38;3.83;;;22.30;53.30;;;;;;6219127;28;20030;-67
2023/10/25 12:26:11;;;;;;;4.40;2.75;;;22.20;53.40;;;;;;6219460;28;20030;-67
2023/10/25 12:29:12;;;;;;;9.23;3.33;;;22.20;53.40;;;;;;6200713;28;20044;-66
2023/10/25 12:32:15;;;;;;;6.43;2.05;;;22.10;53.20;;;;;;6218658;28;20112;-64
2023/10/25 12:35:16;;;;;;;10.20;2.35;;;22.10;53.40;;;;;;6216667;28;20352;-66
2023/10/25 12:38:17;;;;;;;4.82;2.60;;;22.00;53.70;;;;;;6218327;28;20030;-65
2023/10/25 12:41:18;;;;;;;11.63;3.08;;;22.10;53.80;;;;;;6218459;28;20617;-66
2023/10/25 12:44:19;;;;;;;12.38;2.10;;;22.10;53.90;;;;;;6218427;28;20033;-67
2023/10/25 12:47:22;;;;;;;5.93;1.90;;;22.20;54.00;;;;;;6218259;28;20057;-66
2023/10/25 12:50:24;;;;;;;6.82;1.77;;;22.30;53.40;;;;;;6194007;28;20038;-65
2023/10/25 12:53:24;;;;;;;4.45;1.25;;;22.30;53.20;;;;;;6193644;28;20192;-65
2023/10/25 12:56:27;;;;;;;2.22;1.50;;;22.40;53.40;;;;;;6193614;28;20044;-65
2023/10/25 12:59:28;;;;;;;4.93;1.65;;;22.50;53.30;;;;;;6194004;28;20030;-66
2023/10/25 13:02:29;;;;;;;9.60;3.67;;;22.60;52.60;;;;;;6216485;28;20128;-67
2023/10/25 13:05:30;;;;;;;7.45;2.63;;;22.70;52.50;;;;;;6217700;28;20030;-65
2023/10/25 13:08:31;;;;;;;2.83;1.77;;;22.70;52.10;;;;;;6215751;28;20034;-68
2023/10/25 13:11:32;;;;;;;4.63;1.50;;;22.50;52.10;;;;;;6216597;28;20081;-66
2023/10/25 13:14:33;;;;;;;2.70;1.30;;;22.50;52.50;;;;;;6216198;28;20380;-67
2023/10/25 13:17:33;;;;;;;5.20;1.35;;;22.40;52.60;;;;;;6217085;28;20034;-66
2023/10/25 13:20:35;;;;;;;8.77;1.63;;;22.40;53.40;;;;;;6217615;28;20168;-66
2023/10/25 13:23:36;;;;;;;4.13;1.85;;;22.30;52.60;;;;;;6217473;28;20367;-67
2023/10/25 13:26:37;;;;;;;2.17;1.52;;;22.20;52.90;;;;;;6215806;28;20518;-67
2023/10/25 13:29:38;;;;;;;2.88;1.25;;;22.20;53.20;;;;;;6216867;28;20030;-66
2023/10/25 13:32:39;;;;;;;2.63;1.70;;;22.30;53.40;;;;;;6217164;28;20454;-65
2023/10/25 13:35:40;;;;;;;7.82;2.65;;;22.40;53.30;;;;;;6216879;28;20033;-68
2023/10/25 13:38:41;;;;;;;4.35;1.35;;;22.50;53.30;;;;;;6215543;28;20053;-66
2023/10/25 13:41:41;;;;;;;5.10;1.70;;;22.40;53.10;;;;;;6216930;28;20158;-67
2023/10/25 13:44:42;;;;;;;2.83;1.65;;;22.30;53.10;;;;;;6216713;28;20113;-67
2023/10/25 13:47:43;;;;;;;5.05;1.67;;;22.20;53.40;;;;;;6216495;28;20747;-66
2023/10/25 13:50:44;;;;;;;6.63;1.90;;;22.10;53.70;;;;;;6216354;28;20029;-66
2023/10/25 13:53:45;;;;;;;4.40;1.75;;;22.00;53.90;;;;;;6216598;28;20030;-66
2023/10/25 13:56:46;;;;;;;7.65;2.47;;;21.90;54.00;;;;;;6215158;28;20033;-66
2023/10/25 13:59:47;;;;;;;8.73;2.53;;;21.80;54.10;;;;;;6215838;28;20379;-67
2023/10/25 14:02:48;;;;;;;10.48;3.65;;;21.70;54.20;;;;;;6215155;28;20038;-66
2023/10/25 14:05:50;;;;;;;20.85;6.97;;;21.60;54.40;;;;;;6216391;28;20451;-66
2023/10/25 14:08:51;;;;;;;15.70;4.97;;;21.50;54.60;;;;;;6216172;28;20030;-66
2023/10/25 14:11:52;;;;;;;7.78;2.80;;;21.30;54.80;;;;;;6203616;28;20781;-66
2023/10/25 14:14:54;;;;;;;10.38;2.55;;;21.20;55.00;;;;;;6190926;28;20038;-65
2023/10/25 14:17:55;;;;;;;2.97;1.42;;;21.20;55.20;;;;;;6192104;28;20041;-65
2023/10/25 14:20:55;;;;;;;3.38;1.15;;;21.10;55.30;;;;;;6190425;28;20471;-66
2023/10/25 14:23:56;;;;;;;9.15;1.95;;;21.00;55.30;;;;;;6192290;28;20125;-66
2023/10/25 14:26:57;;;;;;;4.18;2.17;;;20.90;55.40;;;;;;6193065;28;20121;-66
2023/10/25 14:29:58;;;;;;;12.57;1.90;;;20.80;55.30;;;;;;6191468;28;20077;-66
2023/10/25 14:32:59;;;;;;;5.22;1.38;;;20.70;55.50;;;;;;6189995;28;20074;-66
2023/10/25 14:36:00;;;;;;;4.05;1.13;;;20.60;55.60;;;;;;6191398;28;20034;-66
2023/10/25 14:39:02;;;;;;;5.10;1.40;;;20.50;55.80;;;;;;6189396;28;20488;-67
2023/10/25 14:42:04;;;;;;;3.88;1.17;;;20.40;56.00;;;;;;6191005;28;20048;-67
2023/10/25 14:45:05;;;;;;;6.80;2.33;;;20.30;56.10;;;;;;6213843;28;20033;-65
2023/10/25 14:48:08;;;;;;;10.18;4.05;;;20.30;56.40;;;;;;6214944;28;20193;-66
2023/10/25 14:51:25;;;;;;;7.15;3.38;;;20.20;56.50;;;;;;6214888;28;20059;-66
2023/10/25 14:54:26;;;;;;;9.85;2.45;;;20.10;56.70;;;;;;6213890;28;20141;-67
2023/10/25 14:57:27;;;;;;;6.20;1.88;;;20.10;56.80;;;;;;6213868;28;20033;-66
2023/10/25 15:00:28;;;;;;;5.45;1.90;;;20.00;56.90;;;;;;6214587;28;20038;-67
2023/10/25 15:03:29;;;;;;;13.02;4.32;;;19.90;57.00;;;;;;6214890;28;20084;-66
2023/10/25 15:06:30;;;;;;;9.32;4.53;;;19.80;57.20;;;;;;6214672;28;20068;-66
2023/10/25 15:09:31;;;;;;;18.02;4.70;;;19.80;57.50;;;;;;6216324;28;20387;-67
2023/10/25 15:12:32;;;;;;;7.95;1.60;;;19.70;57.70;;;;;;6217065;28;20363;-67
2023/10/25 15:15:33;;;;;;;10.82;2.58;;;19.70;57.90;;;;;;6213250;28;20041;-65
2023/10/25 15:18:34;;;;;;;14.27;3.53;;;19.60;58.10;;;;;;6214806;28;20128;-65
2023/10/25 15:21:35;;;;;;;4.00;1.67;;;19.50;58.10;;;;;;6214822;28;20044;-65
2023/10/25 15:24:42;;;;;;;6.47;2.88;;;19.50;58.40;;;;;;6213582;28;20367;-66
2023/10/25 15:27:43;;;;;;;4.00;1.92;;;19.50;58.50;;;;;;6215080;28;20113;-66
2023/10/25 15:30:44;;;;;;;6.07;2.15;;;19.40;58.60;;;;;;6214696;28;20061;-67
2023/10/25 15:33:45;;;;;;;4.45;1.98;;;19.30;58.80;;;;;;6213352;28;20275;-65
2023/10/25 15:36:46;;;;;;;6.72;2.35;;;19.30;59.00;;;;;;6213255;28;20034;-67
2023/10/25 15:39:47;;;;;;;6.35;2.30;;;19.30;59.10;;;;;;6203225;28;20649;-66
2023/10/25 15:42:48;;;;;;;7.00;2.40;;;19.30;59.20;;;;;;6190426;28;20098;-66
2023/10/25 15:45:49;;;;;;;6.03;2.70;;;19.20;59.40;;;;;;6189972;28;20129;-66